sensor_id;sensor_type;location;lat;lon;timestamp;pressure;altitude;pressure_sealevel;temperature;humidity
34185;BME280;20454;48.100;11.776;2023-02-08T00:00:40;97232.16;;;-4.97;74.05
34185;BME280;20454;48.100;11.776;2023-02-08T00:03:06;97230.00;;;-5.01;74.09
34185;BME280;20454;48.100;11.776;2023-02-08T00:05:31;97240.84;;;-5.01;73.67
34185;BME280;20454;48.100;11.776;2023-02-08T00:07:57;97235.41;;;-5.01;73.42
34185;BME280;20454;48.100;11.776;2023-02-08T00:10:22;97229.50;;;-5.05;74.76
34185;BME280;20454;48.100;11.776;2023-02-08T00:12:48;97231.75;;;-5.08;74.62
34185;BME280;20454;48.100;11.776;2023-02-08T00:15:16;97238.19;;;-5.09;74.53
34185;BME280;20454;48.100;11.776;2023-02-08T00:17:42;97226.03;;;-5.13;74.69
34185;BME280;20454;48.100;11.776;2023-02-08T00:20:08;97227.72;;;-5.12;75.31
34185;BME280;20454;48.100;11.776;2023-02-08T00:22:34;97227.34;;;-5.09;74.71
34185;BME280;20454;48.100;11.776;2023-02-08T00:25:00;97222.09;;;-5.11;74.90
34185;BME280;20454;48.100;11.776;2023-02-08T00:27:25;97221.94;;;-5.09;74.58
34185;BME280;20454;48.100;11.776;2023-02-08T00:29:51;97207.91;;;-5.13;75.21
34185;BME280;20454;48.100;11.776;2023-02-08T00:32:17;97215.56;;;-5.02;74.63
34185;BME280;20454;48.100;11.776;2023-02-08T00:34:42;97215.56;;;-5.02;75.00
34185;BME280;20454;48.100;11.776;2023-02-08T00:37:08;97205.41;;;-5.00;74.32
34185;BME280;20454;48.100;11.776;2023-02-08T00:39:33;97198.94;;;-4.99;74.54
34185;BME280;20454;48.100;11.776;2023-02-08T00:41:59;97205.00;;;-4.97;73.10
34185;BME280;20454;48.100;11.776;2023-02-08T00:44:25;97202.47;;;-4.98;73.24
34185;BME280;20454;48.100;11.776;2023-02-08T00:46:50;97210.75;;;-4.92;73.14
34185;BME280;20454;48.100;11.776;2023-02-08T00:49:16;97197.34;;;-4.93;72.27
34185;BME280;20454;48.100;11.776;2023-02-08T00:51:42;97195.28;;;-4.91;72.93
34185;BME280;20454;48.100;11.776;2023-02-08T00:54:12;97207.75;;;-4.82;71.58
34185;BME280;20454;48.100;11.776;2023-02-08T00:56:38;97206.91;;;-4.83;70.62
34185;BME280;20454;48.100;11.776;2023-02-08T00:59:04;97194.84;;;-4.80;70.53
34185;BME280;20454;48.100;11.776;2023-02-08T01:01:29;97195.50;;;-4.78;71.11
34185;BME280;20454;48.100;11.776;2023-02-08T01:03:55;97203.63;;;-4.78;70.78
34185;BME280;20454;48.100;11.776;2023-02-08T01:06:21;97192.13;;;-4.80;71.13
34185;BME280;20454;48.100;11.776;2023-02-08T01:08:47;97198.66;;;-4.75;70.95
34185;BME280;20454;48.100;11.776;2023-02-08T01:11:15;97198.03;;;-4.77;71.19
34185;BME280;20454;48.100;11.776;2023-02-08T01:13:43;97197.47;;;-4.72;71.73
34185;BME280;20454;48.100;11.776;2023-02-08T01:16:11;97196.25;;;-4.70;71.68
34185;BME280;20454;48.100;11.776;2023-02-08T01:18:38;97186.25;;;-4.69;71.67
34185;BME280;20454;48.100;11.776;2023-02-08T01:21:10;97191.13;;;-4.65;71.41
34185;BME280;20454;48.100;11.776;2023-02-08T01:23:38;97186.31;;;-4.63;71.85
34185;BME280;20454;48.100;11.776;2023-02-08T01:26:04;97192.22;;;-4.60;71.90
34185;BME280;20454;48.100;11.776;2023-02-08T01:28:30;97187.66;;;-4.59;71.26
34185;BME280;20454;48.100;11.776;2023-02-08T01:30:56;97184.09;;;-4.60;71.47
34185;BME280;20454;48.100;11.776;2023-02-08T01:33:22;97193.25;;;-4.61;71.27
34185;BME280;20454;48.100;11.776;2023-02-08T01:35:51;97192.03;;;-4.58;71.92
34185;BME280;20454;48.100;11.776;2023-02-08T01:38:18;97188.47;;;-4.59;71.50
34185;BME280;20454;48.100;11.776;2023-02-08T01:40:44;97193.91;;;-4.59;71.58
34185;BME280;20454;48.100;11.776;2023-02-08T01:43:27;97182.22;;;-4.59;72.53
34185;BME280;20454;48.100;11.776;2023-02-08T01:45:53;97191.00;;;-4.57;71.34
34185;BME280;20454;48.100;11.776;2023-02-08T01:48:40;97196.06;;;-4.54;71.02
34185;BME280;20454;48.100;11.776;2023-02-08T01:51:08;97193.09;;;-4.59;72.14
34185;BME280;20454;48.100;11.776;2023-02-08T01:53:36;97184.47;;;-4.63;71.76
34185;BME280;20454;48.100;11.776;2023-02-08T01:56:05;97182.13;;;-4.66;72.48
34185;BME280;20454;48.100;11.776;2023-02-08T01:58:37;97188.41;;;-4.65;72.64
34185;BME280;20454;48.100;11.776;2023-02-08T02:01:04;97182.13;;;-4.66;72.86
34185;BME280;20454;48.100;11.776;2023-02-08T02:03:30;97190.06;;;-4.64;72.89
34185;BME280;20454;48.100;11.776;2023-02-08T02:06:09;97179.56;;;-4.67;73.71
34185;BME280;20454;48.100;11.776;2023-02-08T02:08:35;97179.41;;;-4.66;73.12
34185;BME280;20454;48.100;11.776;2023-02-08T02:11:02;97180.59;;;-4.68;73.19
34185;BME280;20454;48.100;11.776;2023-02-08T02:13:28;97189.63;;;-4.68;72.92
34185;BME280;20454;48.100;11.776;2023-02-08T02:15:55;97184.53;;;-4.71;73.44
34185;BME280;20454;48.100;11.776;2023-02-08T02:18:28;97184.75;;;-4.72;73.47
34185;BME280;20454;48.100;11.776;2023-02-08T02:24:03;97177.16;;;-4.76;73.18
34185;BME280;20454;48.100;11.776;2023-02-08T02:30:30;97174.16;;;-4.81;74.26
34185;BME280;20454;48.100;11.776;2023-02-08T02:41:24;97166.47;;;-4.92;75.44
34185;BME280;20454;48.100;11.776;2023-02-08T02:44:51;97166.88;;;-4.95;75.52
34185;BME280;20454;48.100;11.776;2023-02-08T02:52:18;97162.00;;;-5.00;74.89
34185;BME280;20454;48.100;11.776;2023-02-08T02:54:48;97166.22;;;-4.97;74.46
34185;BME280;20454;48.100;11.776;2023-02-08T02:57:21;97164.72;;;-5.00;74.87
34185;BME280;20454;48.100;11.776;2023-02-08T02:59:48;97165.75;;;-5.01;74.58
34185;BME280;20454;48.100;11.776;2023-02-08T05:14:28;97127.69;;;-5.44;78.91
34185;BME280;20454;48.100;11.776;2023-02-08T05:16:54;97124.69;;;-5.49;78.69
34185;BME280;20454;48.100;11.776;2023-02-08T05:19:19;97132.44;;;-5.46;79.67
34185;BME280;20454;48.100;11.776;2023-02-08T05:21:45;97129.09;;;-5.48;78.90
34185;BME280;20454;48.100;11.776;2023-02-08T05:24:10;97120.13;;;-5.49;79.13
34185;BME280;20454;48.100;11.776;2023-02-08T05:26:37;97116.56;;;-5.49;79.10
34185;BME280;20454;48.100;11.776;2023-02-08T05:29:04;97128.72;;;-5.45;79.20
34185;BME280;20454;48.100;11.776;2023-02-08T05:31:29;97121.13;;;-5.50;78.92
34185;BME280;20454;48.100;11.776;2023-02-08T05:33:55;97122.63;;;-5.47;79.62
34185;BME280;20454;48.100;11.776;2023-02-08T05:36:21;97111.69;;;-5.54;80.03
34185;BME280;20454;48.100;11.776;2023-02-08T05:38:48;97127.03;;;-5.46;79.80
34185;BME280;20454;48.100;11.776;2023-02-08T05:41:15;97130.75;;;-5.47;79.77
34185;BME280;20454;48.100;11.776;2023-02-08T07:06:36;97161.50;;;-5.55;82.01
34185;BME280;20454;48.100;11.776;2023-02-08T07:09:02;97171.16;;;-5.52;81.89
34185;BME280;20454;48.100;11.776;2023-02-08T07:11:28;97157.03;;;-5.48;82.47
34185;BME280;20454;48.100;11.776;2023-02-08T07:13:54;97160.59;;;-5.47;82.34
34185;BME280;20454;48.100;11.776;2023-02-08T07:16:20;97160.03;;;-5.43;81.69
34185;BME280;20454;48.100;11.776;2023-02-08T07:18:46;97160.88;;;-5.42;81.53
34185;BME280;20454;48.100;11.776;2023-02-08T07:21:12;97163.22;;;-5.39;81.58
34185;BME280;20454;48.100;11.776;2023-02-08T07:23:38;97169.78;;;-5.34;81.59
34185;BME280;20454;48.100;11.776;2023-02-08T07:26:06;97154.72;;;-5.36;81.92
34185;BME280;20454;48.100;11.776;2023-02-08T07:28:32;97167.91;;;-5.33;82.60
34185;BME280;20454;48.100;11.776;2023-02-08T07:30:58;97167.00;;;-5.26;81.96
34185;BME280;20454;48.100;11.776;2023-02-08T07:33:24;97165.13;;;-5.25;82.19
34185;BME280;20454;48.100;11.776;2023-02-08T07:35:50;97164.19;;;-5.18;81.79
34185;BME280;20454;48.100;11.776;2023-02-08T07:38:16;97159.91;;;-5.12;81.35
34185;BME280;20454;48.100;11.776;2023-02-08T07:40:43;97163.19;;;-5.02;80.55
34185;BME280;20454;48.100;11.776;2023-02-08T07:43:08;97166.94;;;-5.03;81.35
34185;BME280;20454;48.100;11.776;2023-02-08T07:45:37;97160.50;;;-5.02;81.34
34185;BME280;20454;48.100;11.776;2023-02-08T07:48:03;97156.19;;;-4.97;81.47
34185;BME280;20454;48.100;11.776;2023-02-08T07:50:28;97163.59;;;-4.91;80.59
34185;BME280;20454;48.100;11.776;2023-02-08T07:52:54;97161.53;;;-4.74;80.44
34185;BME280;20454;48.100;11.776;2023-02-08T07:55:19;97157.97;;;-4.75;80.86
34185;BME280;20454;48.100;11.776;2023-02-08T07:57:46;97171.91;;;-4.64;81.20
34185;BME280;20454;48.100;11.776;2023-02-08T08:00:14;97165.66;;;-4.64;80.80
34185;BME280;20454;48.100;11.776;2023-02-08T08:02:40;97164.97;;;-4.52;80.97
34185;BME280;20454;48.100;11.776;2023-02-08T08:05:07;97151.50;;;-4.45;80.58
34185;BME280;20454;48.100;11.776;2023-02-08T08:07:32;97156.25;;;-4.33;80.49
34185;BME280;20454;48.100;11.776;2023-02-08T08:09:58;97161.09;;;-4.14;79.53
34185;BME280;20454;48.100;11.776;2023-02-08T08:12:24;97158.09;;;-4.19;78.46
34185;BME280;20454;48.100;11.776;2023-02-08T08:14:50;97155.19;;;-4.17;79.04
34185;BME280;20454;48.100;11.776;2023-02-08T08:17:16;97156.94;;;-4.10;79.40
34185;BME280;20454;48.100;11.776;2023-02-08T08:19:42;97156.50;;;-3.92;78.02
34185;BME280;20454;48.100;11.776;2023-02-08T08:22:07;97149.72;;;-3.82;77.37
34185;BME280;20454;48.100;11.776;2023-02-08T08:24:33;97157.56;;;-3.72;76.99
34185;BME280;20454;48.100;11.776;2023-02-08T08:27:05;97155.31;;;-3.69;77.14
34185;BME280;20454;48.100;11.776;2023-02-08T08:29:32;97162.41;;;-3.68;76.63
34185;BME280;20454;48.100;11.776;2023-02-08T08:31:58;97166.91;;;-3.60;76.98
34185;BME280;20454;48.100;11.776;2023-02-08T08:34:24;97165.47;;;-3.56;77.21
34185;BME280;20454;48.100;11.776;2023-02-08T08:36:58;97164.78;;;-3.44;75.13
34185;BME280;20454;48.100;11.776;2023-02-08T08:39:25;97168.22;;;-3.35;75.32
34185;BME280;20454;48.100;11.776;2023-02-08T08:41:52;97167.97;;;-3.13;73.78
34185;BME280;20454;48.100;11.776;2023-02-08T08:44:18;97164.88;;;-3.10;73.24
34185;BME280;20454;48.100;11.776;2023-02-08T08:46:44;97162.78;;;-3.08;73.90
34185;BME280;20454;48.100;11.776;2023-02-08T08:49:10;97171.75;;;-2.86;72.40
34185;BME280;20454;48.100;11.776;2023-02-08T08:51:35;97173.22;;;-2.84;73.24
34185;BME280;20454;48.100;11.776;2023-02-08T08:54:03;97164.91;;;-2.76;72.18
34185;BME280;20454;48.100;11.776;2023-02-08T08:56:29;97168.81;;;-2.57;71.92
34185;BME280;20454;48.100;11.776;2023-02-08T08:58:54;97163.78;;;-2.54;71.71
34185;BME280;20454;48.100;11.776;2023-02-08T09:01:20;97150.88;;;-2.39;70.01
34185;BME280;20454;48.100;11.776;2023-02-08T09:03:46;97149.88;;;-2.31;70.57
34185;BME280;20454;48.100;11.776;2023-02-08T09:06:11;97150.34;;;-2.15;69.09
34185;BME280;20454;48.100;11.776;2023-02-08T09:08:37;97148.53;;;-1.95;69.59
34185;BME280;20454;48.100;11.776;2023-02-08T09:11:08;97157.59;;;-1.88;68.86
34185;BME280;20454;48.100;11.776;2023-02-08T09:13:34;97136.44;;;-1.79;68.10
34185;BME280;20454;48.100;11.776;2023-02-08T09:16:15;97151.59;;;-1.64;69.01
34185;BME280;20454;48.100;11.776;2023-02-08T09:18:41;97151.41;;;-1.36;68.94
34185;BME280;20454;48.100;11.776;2023-02-08T09:21:18;97149.34;;;-1.15;69.55
34185;BME280;20454;48.100;11.776;2023-02-08T09:23:44;97148.31;;;-0.88;69.31
34185;BME280;20454;48.100;11.776;2023-02-08T09:26:15;97149.31;;;-0.56;67.38
34185;BME280;20454;48.100;11.776;2023-02-08T09:28:41;97141.28;;;-0.32;65.69
34185;BME280;20454;48.100;11.776;2023-02-08T09:31:20;97160.53;;;-0.08;64.53
34185;BME280;20454;48.100;11.776;2023-02-08T09:33:47;97158.59;;;0.06;63.98
34185;BME280;20454;48.100;11.776;2023-02-08T09:36:13;97157.00;;;0.29;65.05
34185;BME280;20454;48.100;11.776;2023-02-08T09:38:39;97152.28;;;0.49;62.91
34185;BME280;20454;48.100;11.776;2023-02-08T09:47:00;97155.41;;;1.39;58.10
34185;BME280;20454;48.100;11.776;2023-02-08T09:49:31;97155.88;;;1.54;56.66
34185;BME280;20454;48.100;11.776;2023-02-08T09:52:02;97156.31;;;1.76;57.27
34185;BME280;20454;48.100;11.776;2023-02-08T09:57:00;97151.00;;;2.17;53.94
34185;BME280;20454;48.100;11.776;2023-02-08T09:59:30;97144.97;;;2.26;53.97
34185;BME280;20454;48.100;11.776;2023-02-08T10:02:20;97155.34;;;2.54;53.71
34185;BME280;20454;48.100;11.776;2023-02-08T10:07:28;97136.31;;;3.00;51.80
34185;BME280;20454;48.100;11.776;2023-02-08T10:09:56;97129.91;;;3.17;51.30
34185;BME280;20454;48.100;11.776;2023-02-08T10:12:48;97136.63;;;3.44;50.61
34185;BME280;20454;48.100;11.776;2023-02-08T10:20:47;97131.31;;;4.23;48.78
34185;BME280;20454;48.100;11.776;2023-02-08T10:26:07;97120.97;;;4.69;47.79
34185;BME280;20454;48.100;11.776;2023-02-08T10:29:09;97124.88;;;4.85;47.17
34185;BME280;20454;48.100;11.776;2023-02-08T10:34:24;97120.72;;;4.99;45.89
34185;BME280;20454;48.100;11.776;2023-02-08T10:36:54;97112.13;;;5.12;46.67
34185;BME280;20454;48.100;11.776;2023-02-08T10:39:28;97112.09;;;5.40;45.61
34185;BME280;20454;48.100;11.776;2023-02-08T10:41:55;97105.75;;;5.39;45.01
34185;BME280;20454;48.100;11.776;2023-02-08T10:47:52;97095.09;;;5.48;45.21
34185;BME280;20454;48.100;11.776;2023-02-08T10:50:23;97089.91;;;5.51;44.98
34185;BME280;20454;48.100;11.776;2023-02-08T10:52:54;97092.94;;;5.50;46.09
34185;BME280;20454;48.100;11.776;2023-02-08T10:55:20;97089.84;;;5.30;44.87
34185;BME280;20454;48.100;11.776;2023-02-08T10:57:47;97080.59;;;5.08;46.21
34185;BME280;20454;48.100;11.776;2023-02-08T11:00:21;97090.13;;;4.84;46.51
34185;BME280;20454;48.100;11.776;2023-02-08T11:02:50;97082.94;;;4.55;47.30
34185;BME280;20454;48.100;11.776;2023-02-08T11:05:36;97085.41;;;4.40;48.72
34185;BME280;20454;48.100;11.776;2023-02-08T11:08:19;97084.22;;;4.36;48.23
34185;BME280;20454;48.100;11.776;2023-02-08T11:13:19;97072.94;;;3.87;49.36
34185;BME280;20454;48.100;11.776;2023-02-08T11:18:46;97076.66;;;4.04;49.02
34185;BME280;20454;48.100;11.776;2023-02-08T11:21:23;97069.34;;;3.98;49.86
34185;BME280;20454;48.100;11.776;2023-02-08T11:23:51;97077.34;;;4.11;49.72
34185;BME280;20454;48.100;11.776;2023-02-08T11:31:23;97069.91;;;4.23;49.46
34185;BME280;20454;48.100;11.776;2023-02-08T11:33:59;97070.19;;;4.38;48.82
34185;BME280;20454;48.100;11.776;2023-02-08T11:36:26;97073.19;;;4.36;49.32
34185;BME280;20454;48.100;11.776;2023-02-08T11:38:52;97073.78;;;4.38;49.34
34185;BME280;20454;48.100;11.776;2023-02-08T11:41:18;97065.56;;;4.27;50.10
34185;BME280;20454;48.100;11.776;2023-02-08T11:43:57;97065.22;;;4.23;50.13
34185;BME280;20454;48.100;11.776;2023-02-08T11:46:25;97051.31;;;4.18;50.52
34185;BME280;20454;48.100;11.776;2023-02-08T11:48:52;97048.50;;;4.13;50.24
34185;BME280;20454;48.100;11.776;2023-02-08T11:51:30;97056.53;;;4.03;49.57
34185;BME280;20454;48.100;11.776;2023-02-08T11:53:57;97036.59;;;3.73;50.87
34185;BME280;20454;48.100;11.776;2023-02-08T11:56:27;97033.28;;;3.71;51.32
34185;BME280;20454;48.100;11.776;2023-02-08T11:59:17;97039.84;;;3.82;50.73
34185;BME280;20454;48.100;11.776;2023-02-08T12:01:43;97049.78;;;3.48;50.22
34185;BME280;20454;48.100;11.776;2023-02-08T12:04:11;97056.97;;;3.15;51.08
34185;BME280;20454;48.100;11.776;2023-02-08T12:07:05;97046.53;;;2.94;51.89
34185;BME280;20454;48.100;11.776;2023-02-08T12:15:25;97027.69;;;3.43;50.87
34185;BME280;20454;48.100;11.776;2023-02-08T12:20:35;97018.78;;;4.15;50.70
34185;BME280;20454;48.100;11.776;2023-02-08T12:34:24;96986.81;;;5.41;47.47
34185;BME280;20454;48.100;11.776;2023-02-08T12:43:26;96970.66;;;6.09;44.29
34185;BME280;20454;48.100;11.776;2023-02-08T12:54:34;96954.22;;;5.97;42.83
34185;BME280;20454;48.100;11.776;2023-02-08T12:57:01;96953.56;;;5.90;44.13
34185;BME280;20454;48.100;11.776;2023-02-08T13:02:39;96953.19;;;6.03;42.87
34185;BME280;20454;48.100;11.776;2023-02-08T13:05:14;96944.97;;;5.87;43.71
34185;BME280;20454;48.100;11.776;2023-02-08T13:07:42;96933.44;;;5.73;43.49
34185;BME280;20454;48.100;11.776;2023-02-08T13:10:28;96946.34;;;5.68;44.30
34185;BME280;20454;48.100;11.776;2023-02-08T13:13:00;96931.72;;;5.29;44.54
34185;BME280;20454;48.100;11.776;2023-02-08T13:15:35;96929.09;;;5.18;46.02
34185;BME280;20454;48.100;11.776;2023-02-08T13:18:15;96943.06;;;5.11;45.96
34185;BME280;20454;48.100;11.776;2023-02-08T13:23:37;96941.91;;;4.74;46.04
34185;BME280;20454;48.100;11.776;2023-02-08T13:26:07;96946.34;;;4.43;46.37
34185;BME280;20454;48.100;11.776;2023-02-08T13:28:33;96932.31;;;4.16;47.11
34185;BME280;20454;48.100;11.776;2023-02-08T13:31:03;96937.72;;;4.11;48.05
34185;BME280;20454;48.100;11.776;2023-02-08T13:33:39;96928.84;;;3.93;47.97
34185;BME280;20454;48.100;11.776;2023-02-08T13:36:33;96931.81;;;4.03;48.74
34185;BME280;20454;48.100;11.776;2023-02-08T13:39:02;96926.53;;;4.01;48.02
34185;BME280;20454;48.100;11.776;2023-02-08T13:41:28;96918.91;;;3.92;48.46
34185;BME280;20454;48.100;11.776;2023-02-08T13:44:00;96926.69;;;3.95;48.07
34185;BME280;20454;48.100;11.776;2023-02-08T13:46:33;96917.75;;;4.04;49.48
34185;BME280;20454;48.100;11.776;2023-02-08T13:48:59;96919.81;;;4.25;48.33
34185;BME280;20454;48.100;11.776;2023-02-08T13:56:45;96917.50;;;4.50;46.91
34185;BME280;20454;48.100;11.776;2023-02-08T14:04:50;96907.81;;;4.47;46.32
34185;BME280;20454;48.100;11.776;2023-02-08T14:08:01;96921.69;;;4.36;45.88
34185;BME280;20454;48.100;11.776;2023-02-08T14:10:25;96907.63;;;4.21;46.77
34185;BME280;20454;48.100;11.776;2023-02-08T14:13:02;96906.03;;;4.25;46.43
34185;BME280;20454;48.100;11.776;2023-02-08T14:15:37;96905.97;;;4.20;46.35
34185;BME280;20454;48.100;11.776;2023-02-08T14:18:04;96907.25;;;4.01;46.47
34185;BME280;20454;48.100;11.776;2023-02-08T14:20:44;96905.25;;;3.97;47.06
34185;BME280;20454;48.100;11.776;2023-02-08T14:23:22;96904.81;;;3.88;49.31
34185;BME280;20454;48.100;11.776;2023-02-08T14:25:50;96898.34;;;4.11;48.37
34185;BME280;20454;48.100;11.776;2023-02-08T14:28:38;96908.75;;;4.37;46.56
34185;BME280;20454;48.100;11.776;2023-02-08T14:31:09;96911.56;;;4.42;46.35
34185;BME280;20454;48.100;11.776;2023-02-08T14:33:40;96913.41;;;4.36;47.14
34185;BME280;20454;48.100;11.776;2023-02-08T14:36:29;96914.75;;;4.34;47.39
34185;BME280;20454;48.100;11.776;2023-02-08T14:39:07;96908.56;;;4.27;47.37
34185;BME280;20454;48.100;11.776;2023-02-08T14:42:11;96904.22;;;4.14;46.82
34185;BME280;20454;48.100;11.776;2023-02-08T14:50:22;96902.78;;;2.82;50.56
34185;BME280;20454;48.100;11.776;2023-02-08T14:53:03;96911.03;;;2.59;50.59
34185;BME280;20454;48.100;11.776;2023-02-08T14:55:33;96910.41;;;2.22;52.24
34185;BME280;20454;48.100;11.776;2023-02-08T14:58:01;96902.31;;;1.86;53.40
34185;BME280;20454;48.100;11.776;2023-02-08T15:00:34;96899.53;;;1.75;53.60
34185;BME280;20454;48.100;11.776;2023-02-08T17:00:17;96934.31;;;-1.13;66.55
34185;BME280;20454;48.100;11.776;2023-02-08T17:02:43;96926.75;;;-1.17;66.84
34185;BME280;20454;48.100;11.776;2023-02-08T17:05:09;96921.34;;;-1.24;66.78
34185;BME280;20454;48.100;11.776;2023-02-08T17:07:34;96925.09;;;-1.25;66.94
34185;BME280;20454;48.100;11.776;2023-02-08T17:10:03;96930.78;;;-1.26;67.18
34185;BME280;20454;48.100;11.776;2023-02-08T17:12:29;96927.41;;;-1.28;67.19
34185;BME280;20454;48.100;11.776;2023-02-08T17:14:54;96933.09;;;-1.30;67.26
34185;BME280;20454;48.100;11.776;2023-02-08T17:17:20;96926.38;;;-1.34;67.67
34185;BME280;20454;48.100;11.776;2023-02-08T17:19:46;96935.00;;;-1.37;67.55
34185;BME280;20454;48.100;11.776;2023-02-08T17:22:12;96940.06;;;-1.40;68.01
34185;BME280;20454;48.100;11.776;2023-02-08T17:24:37;96933.38;;;-1.51;68.41
34185;BME280;20454;48.100;11.776;2023-02-08T17:27:03;96921.63;;;-1.58;68.00
34185;BME280;20454;48.100;11.776;2023-02-08T17:29:29;96917.63;;;-1.55;68.65
34185;BME280;20454;48.100;11.776;2023-02-08T17:31:54;96914.50;;;-1.59;68.66
34185;BME280;20454;48.100;11.776;2023-02-08T17:34:20;96918.25;;;-1.60;69.13
34185;BME280;20454;48.100;11.776;2023-02-08T17:36:46;96913.22;;;-1.63;69.19
34185;BME280;20454;48.100;11.776;2023-02-08T17:39:12;96911.13;;;-1.67;69.72
34185;BME280;20454;48.100;11.776;2023-02-08T17:41:38;96924.56;;;-1.66;69.64
34185;BME280;20454;48.100;11.776;2023-02-08T17:44:04;96917.66;;;-1.68;69.94
34185;BME280;20454;48.100;11.776;2023-02-08T17:46:31;96913.00;;;-1.68;70.06
34185;BME280;20454;48.100;11.776;2023-02-08T17:48:57;96913.66;;;-1.72;70.10
34185;BME280;20454;48.100;11.776;2023-02-08T17:51:28;96909.88;;;-1.71;69.73
34185;BME280;20454;48.100;11.776;2023-02-08T17:53:53;96901.06;;;-1.73;70.39
34185;BME280;20454;48.100;11.776;2023-02-08T17:56:21;96910.72;;;-1.71;70.24
34185;BME280;20454;48.100;11.776;2023-02-08T17:58:48;96904.84;;;-1.74;70.08
34185;BME280;20454;48.100;11.776;2023-02-08T18:01:19;96911.97;;;-1.80;69.61
34185;BME280;20454;48.100;11.776;2023-02-08T18:03:46;96912.41;;;-1.83;69.94
34185;BME280;20454;48.100;11.776;2023-02-08T18:06:13;96911.78;;;-1.85;70.18
34185;BME280;20454;48.100;11.776;2023-02-08T20:46:43;96867.25;;;-3.90;80.21
34185;BME280;20454;48.100;11.776;2023-02-08T20:49:09;96864.53;;;-3.90;80.27
34185;BME280;20454;48.100;11.776;2023-02-08T20:51:35;96867.44;;;-3.91;80.14
34185;BME280;20454;48.100;11.776;2023-02-08T20:54:01;96876.63;;;-3.92;80.66
34185;BME280;20454;48.100;11.776;2023-02-08T20:56:31;96876.19;;;-3.96;80.26
34185;BME280;20454;48.100;11.776;2023-02-08T20:59:00;96886.22;;;-3.96;80.06
34185;BME280;20454;48.100;11.776;2023-02-08T21:01:26;96885.97;;;-4.01;80.35
34185;BME280;20454;48.100;11.776;2023-02-08T21:03:53;96884.91;;;-4.07;80.95
34185;BME280;20454;48.100;11.776;2023-02-08T21:06:31;96882.38;;;-4.08;80.80
34185;BME280;20454;48.100;11.776;2023-02-08T21:08:58;96882.56;;;-4.10;81.04
34185;BME280;20454;48.100;11.776;2023-02-08T21:11:27;96879.84;;;-4.10;81.73
34185;BME280;20454;48.100;11.776;2023-02-08T21:13:54;96887.19;;;-4.10;81.69
34185;BME280;20454;48.100;11.776;2023-02-08T21:16:20;96884.66;;;-4.12;81.80
34185;BME280;20454;48.100;11.776;2023-02-08T21:18:46;96885.44;;;-4.18;81.35
34185;BME280;20454;48.100;11.776;2023-02-08T21:21:12;96879.75;;;-4.23;81.58
34185;BME280;20454;48.100;11.776;2023-02-08T21:23:39;96888.13;;;-4.24;81.44
34185;BME280;20454;48.100;11.776;2023-02-08T21:26:06;96879.06;;;-4.31;81.82
34185;BME280;20454;48.100;11.776;2023-02-08T21:28:32;96872.97;;;-4.33;81.86
34185;BME280;20454;48.100;11.776;2023-02-08T21:31:07;96873.56;;;-4.38;81.95
34185;BME280;20454;48.100;11.776;2023-02-08T21:33:34;96875.06;;;-4.35;82.34
34185;BME280;20454;48.100;11.776;2023-02-08T21:36:04;96869.81;;;-4.37;81.73
34185;BME280;20454;48.100;11.776;2023-02-08T21:38:31;96874.22;;;-4.36;81.53
34185;BME280;20454;48.100;11.776;2023-02-08T21:40:56;96875.25;;;-4.37;81.83
34185;BME280;20454;48.100;11.776;2023-02-08T21:43:22;96877.50;;;-4.40;81.92
34185;BME280;20454;48.100;11.776;2023-02-08T21:45:48;96871.00;;;-4.46;82.33
34185;BME280;20454;48.100;11.776;2023-02-08T21:48:13;96863.66;;;-4.52;82.24
34185;BME280;20454;48.100;11.776;2023-02-08T21:50:39;96858.34;;;-4.60;82.91
34185;BME280;20454;48.100;11.776;2023-02-08T21:53:23;96859.53;;;-4.68;82.21
34185;BME280;20454;48.100;11.776;2023-02-08T21:56:08;96854.47;;;-4.72;82.44
34185;BME280;20454;48.100;11.776;2023-02-08T21:58:34;96861.13;;;-4.74;81.71
34185;BME280;20454;48.100;11.776;2023-02-08T22:01:00;96851.72;;;-4.78;81.60
34185;BME280;20454;48.100;11.776;2023-02-08T22:03:25;96851.66;;;-4.84;82.18
34185;BME280;20454;48.100;11.776;2023-02-08T22:05:51;96849.34;;;-4.87;82.58
34185;BME280;20454;48.100;11.776;2023-02-08T22:08:36;96844.88;;;-4.95;82.14
34185;BME280;20454;48.100;11.776;2023-02-08T22:11:01;96841.69;;;-4.98;82.27
34185;BME280;20454;48.100;11.776;2023-02-08T22:13:32;96848.38;;;-5.01;82.85
34185;BME280;20454;48.100;11.776;2023-02-08T22:15:58;96836.41;;;-5.06;81.83
34185;BME280;20454;48.100;11.776;2023-02-08T22:18:25;96832.78;;;-5.13;83.21
34185;BME280;20454;48.100;11.776;2023-02-08T22:20:51;96831.50;;;-5.17;82.98
34185;BME280;20454;48.100;11.776;2023-02-08T22:23:17;96828.34;;;-5.21;83.10
34185;BME280;20454;48.100;11.776;2023-02-08T22:25:43;96835.44;;;-5.20;83.31
34185;BME280;20454;48.100;11.776;2023-02-08T22:28:08;96838.53;;;-5.23;82.74
34185;BME280;20454;48.100;11.776;2023-02-08T22:30:34;96853.13;;;-5.24;83.42
34185;BME280;20454;48.100;11.776;2023-02-08T22:33:00;96835.34;;;-5.26;83.14
34185;BME280;20454;48.100;11.776;2023-02-08T22:35:25;96838.66;;;-5.31;82.83
34185;BME280;20454;48.100;11.776;2023-02-08T22:37:51;96838.00;;;-5.33;83.12
34185;BME280;20454;48.100;11.776;2023-02-08T22:40:17;96846.16;;;-5.33;83.29
34185;BME280;20454;48.100;11.776;2023-02-08T22:42:42;96846.06;;;-5.39;82.74
34185;BME280;20454;48.100;11.776;2023-02-08T22:45:09;96840.00;;;-5.41;83.77
34185;BME280;20454;48.100;11.776;2023-02-08T22:47:34;96845.59;;;-5.43;82.66
34185;BME280;20454;48.100;11.776;2023-02-08T22:50:00;96836.19;;;-5.47;83.46
34185;BME280;20454;48.100;11.776;2023-02-08T22:52:26;96834.88;;;-5.51;83.60
34185;BME280;20454;48.100;11.776;2023-02-08T22:54:52;96832.16;;;-5.51;83.89
34185;BME280;20454;48.100;11.776;2023-02-08T22:57:18;96833.38;;;-5.53;83.59
34185;BME280;20454;48.100;11.776;2023-02-08T22:59:44;96832.09;;;-5.57;83.67
34185;BME280;20454;48.100;11.776;2023-02-08T23:02:12;96834.34;;;-5.61;83.45
34185;BME280;20454;48.100;11.776;2023-02-08T23:04:37;96820.47;;;-5.72;84.09
34185;BME280;20454;48.100;11.776;2023-02-08T23:07:03;96836.97;;;-5.67;83.74